Time;durP1;ratioP1;P1;durP2;ratioP2;P2;SDS_P1;SDS_P2;PMS_P1;PMS_P2;Temp;Humidity;BMP_temperature;BMP_pressure;BME280_temperature;BME280_humidity;BME280_pressure;Samples;Min_cycle;Max_cycle;Signal;HPM_P1;HPM_P2
2023/12/04 00:02:01;;;;;;;32.80;17.10;;;;;;;;;;5144960;27;20645;-76
2023/12/04 00:04:28;;;;;;;30.67;16.47;;;;;;;;;;5145579;27;20456;-78
2023/12/04 00:06:56;;;;;;;31.97;16.30;;;;;;;;;;5146797;27;20476;-77
2023/12/04 00:09:28;;;;;;;28.90;17.10;;;;;;;;;;5144598;27;20892;-78
2023/12/04 00:11:56;;;;;;;37.63;19.83;;;;;;;;;;5147066;27;20452;-78
2023/12/04 00:14:24;;;;;;;40.40;18.87;;;;;;;;;;5146061;27;20918;-78
2023/12/04 00:16:51;;;;;;;36.87;18.73;;;;;;;;;;5145829;28;20476;-77
2023/12/04 00:19:19;;;;;;;34.50;17.07;;;;;;;;;;5145027;27;20555;-77
2023/12/04 00:21:47;;;;;;;35.40;15.93;;;;;;;;;;5144915;28;20491;-78
2023/12/04 00:24:15;;;;;;;37.77;18.53;;;;;;;;;;5146661;28;20492;-76
2023/12/04 00:26:44;;;;;;;34.47;18.40;;;;;;;;;;5144288;28;20475;-77
2023/12/04 00:29:12;;;;;;;30.63;19.80;;;;;;;;;;5146226;28;20458;-77
2023/12/04 00:31:40;;;;;;;36.77;17.20;;;;;;;;;;5145378;28;20877;-77
2023/12/04 00:34:08;;;;;;;38.90;17.20;;;;;;;;;;5143233;28;20462;-77
2023/12/04 00:36:36;;;;;;;35.07;18.50;;;;;;;;;;5146887;28;20484;-77
2023/12/04 00:39:05;;;;;;;33.93;16.40;;;;;;;;;;5146702;28;20461;-78
2023/12/04 00:41:33;;;;;;;27.90;15.60;;;;;;;;;;5143382;28;20468;-77
2023/12/04 00:44:03;;;;;;;30.17;14.90;;;;;;;;;;5143571;28;20440;-78
2023/12/04 00:46:30;;;;;;;31.53;16.90;;;;;;;;;;5145047;28;20448;-77
2023/12/04 00:48:58;;;;;;;35.77;19.00;;;;;;;;;;5144084;28;20576;-78
2023/12/04 00:51:26;;;;;;;38.50;18.70;;;;;;;;;;5145228;28;20466;-78
2023/12/04 00:53:55;;;;;;;34.10;18.60;;;;;;;;;;5143711;28;20554;-77
2023/12/04 00:56:22;;;;;;;39.53;18.40;;;;;;;;;;5145346;28;20957;-77
2023/12/04 00:58:50;;;;;;;39.37;17.50;;;;;;;;;;5145700;28;20440;-77
2023/12/04 01:01:20;;;;;;;36.97;17.20;;;;;;;;;;5144485;28;20453;-77
2023/12/04 01:03:47;;;;;;;34.87;18.47;;;;;;;;;;5145029;27;20460;-77
2023/12/04 01:06:22;;;;;;;34.53;17.10;;;;;;;;;;5145237;28;20457;-78
2023/12/04 01:08:50;;;;;;;34.33;17.63;;;;;;;;;;5145188;28;20816;-78
2023/12/04 01:11:19;;;;;;;32.53;18.37;;;;;;;;;;5144858;27;20459;-77
2023/12/04 01:13:47;;;;;;;29.07;14.80;;;;;;;;;;5144017;28;20712;-78
2023/12/04 01:16:15;;;;;;;33.63;16.27;;;;;;;;;;5143532;28;20487;-77
2023/12/04 01:18:44;;;;;;;31.13;16.20;;;;;;;;;;5143734;27;20460;-77
2023/12/04 01:21:12;;;;;;;28.40;15.00;;;;;;;;;;5143766;28;20445;-77
2023/12/04 01:23:40;;;;;;;33.87;17.33;;;;;;;;;;5142836;28;20708;-77
2023/12/04 01:26:08;;;;;;;32.57;15.47;;;;;;;;;;5144246;28;20441;-78
2023/12/04 01:28:36;;;;;;;26.70;16.23;;;;;;;;;;5145522;28;20528;-77
2023/12/04 01:31:03;;;;;;;34.10;16.30;;;;;;;;;;5148410;27;20524;-77
2023/12/04 01:33:33;;;;;;;35.90;16.47;;;;;;;;;;5148295;27;20535;-77
2023/12/04 01:36:03;;;;;;;33.07;15.87;;;;;;;;;;5150496;27;20480;-77
2023/12/04 01:38:31;;;;;;;35.10;17.27;;;;;;;;;;5147353;27;20462;-77
2023/12/04 01:40:59;;;;;;;28.37;15.10;;;;;;;;;;5149248;27;20439;-77
2023/12/04 01:43:28;;;;;;;28.50;15.07;;;;;;;;;;5147545;27;20443;-78
2023/12/04 01:45:56;;;;;;;33.50;16.30;;;;;;;;;;5145394;27;20522;-76
2023/12/04 01:48:28;;;;;;;28.17;14.70;;;;;;;;;;5146163;27;20953;-77
2023/12/04 01:50:56;;;;;;;36.40;16.70;;;;;;;;;;5144203;27;20504;-77
2023/12/04 01:53:27;;;;;;;35.20;17.63;;;;;;;;;;5145019;27;20455;-78
2023/12/04 01:55:55;;;;;;;31.47;15.47;;;;;;;;;;5143142;27;20926;-77
2023/12/04 01:58:24;;;;;;;30.70;17.07;;;;;;;;;;5145088;27;20523;-77
2023/12/04 02:00:52;;;;;;;27.70;13.37;;;;;;;;;;5144149;27;20513;-77
2023/12/04 02:03:20;;;;;;;29.80;16.40;;;;;;;;;;5146131;27;20453;-76
2023/12/04 02:05:48;;;;;;;28.70;14.20;;;;;;;;;;5146680;27;20463;-77
2023/12/04 02:08:16;;;;;;;31.00;15.77;;;;;;;;;;5146840;27;20516;-77
2023/12/04 02:10:45;;;;;;;27.80;15.10;;;;;;;;;;5148354;27;20451;-77
2023/12/04 02:13:13;;;;;;;31.97;17.87;;;;;;;;;;5146494;27;20452;-77
2023/12/04 02:15:41;;;;;;;28.77;14.90;;;;;;;;;;5147534;27;20461;-77
2023/12/04 02:18:15;;;;;;;29.20;16.03;;;;;;;;;;5147028;27;20497;-76
2023/12/04 02:20:43;;;;;;;24.63;14.20;;;;;;;;;;5148658;27;20459;-77
2023/12/04 02:23:11;;;;;;;32.27;13.60;;;;;;;;;;5147925;27;20452;-77
2023/12/04 02:25:40;;;;;;;26.17;14.63;;;;;;;;;;5146004;27;20481;-77
2023/12/04 02:28:13;;;;;;;31.53;15.57;;;;;;;;;;5145749;27;20898;-77
2023/12/04 02:30:43;;;;;;;28.30;14.60;;;;;;;;;;5146616;27;20476;-76
2023/12/04 02:33:12;;;;;;;27.13;14.50;;;;;;;;;;5147643;27;20457;-78
2023/12/04 02:35:41;;;;;;;23.27;13.93;;;;;;;;;;5148767;27;20433;-77
2023/12/04 02:38:18;;;;;;;27.70;16.93;;;;;;;;;;5147400;27;21058;-77
2023/12/04 02:40:47;;;;;;;25.17;12.93;;;;;;;;;;5146664;27;20456;-76
2023/12/04 02:43:15;;;;;;;25.20;14.33;;;;;;;;;;5146994;27;20440;-77
2023/12/04 02:45:42;;;;;;;21.17;13.60;;;;;;;;;;5145635;27;20471;-78
2023/12/04 02:50:52;;;;;;;28.57;13.83;;;;;;;;;;5144357;27;20453;-79
2023/12/04 02:53:21;;;;;;;26.33;13.00;;;;;;;;;;5145527;27;20578;-77
2023/12/04 02:55:51;;;;;;;32.03;14.70;;;;;;;;;;5145688;27;20451;-78
2023/12/04 02:58:19;;;;;;;26.53;14.70;;;;;;;;;;5145787;27;20472;-78
2023/12/04 03:00:47;;;;;;;31.47;14.17;;;;;;;;;;5145676;27;20890;-76
2023/12/04 03:03:17;;;;;;;28.90;14.53;;;;;;;;;;5145669;27;20466;-76
2023/12/04 03:05:45;;;;;;;25.33;15.77;;;;;;;;;;5145528;27;20447;-76
2023/12/04 03:08:17;;;;;;;23.00;12.23;;;;;;;;;;5145328;27;20455;-78
2023/12/04 03:10:48;;;;;;;26.50;13.23;;;;;;;;;;5147892;27;20477;-76
2023/12/04 03:13:17;;;;;;;27.90;14.60;;;;;;;;;;5147146;27;20464;-77
2023/12/04 03:15:48;;;;;;;23.80;13.70;;;;;;;;;;5147337;27;20461;-77
2023/12/04 03:18:26;;;;;;;30.03;15.00;;;;;;;;;;5147743;27;20492;-77
2023/12/04 03:20:54;;;;;;;28.97;13.93;;;;;;;;;;5147417;27;20447;-77
2023/12/04 03:23:22;;;;;;;27.80;13.87;;;;;;;;;;5147435;27;20461;-77
2023/12/04 03:25:50;;;;;;;28.20;16.00;;;;;;;;;;5146757;27;20466;-77
2023/12/04 03:28:19;;;;;;;33.47;13.80;;;;;;;;;;5145467;27;20555;-77
2023/12/04 03:30:47;;;;;;;23.27;13.17;;;;;;;;;;5147059;27;20444;-78
2023/12/04 03:33:15;;;;;;;27.03;13.00;;;;;;;;;;5145964;27;20877;-77
2023/12/04 03:35:43;;;;;;;22.70;12.50;;;;;;;;;;5144228;27;20447;-77
2023/12/04 03:38:14;;;;;;;23.77;11.30;;;;;;;;;;5146057;27;20482;-78
2023/12/04 03:40:42;;;;;;;31.97;12.87;;;;;;;;;;5145718;27;20562;-78
2023/12/04 03:43:09;;;;;;;21.40;13.00;;;;;;;;;;5142880;27;20539;-78
2023/12/04 03:45:39;;;;;;;24.17;13.10;;;;;;;;;;5142727;27;20520;-79
2023/12/04 03:48:07;;;;;;;24.23;13.50;;;;;;;;;;5143095;27;20432;-78
2023/12/04 03:50:35;;;;;;;22.10;10.90;;;;;;;;;;5141880;27;20516;-79
2023/12/04 03:53:03;;;;;;;23.30;12.57;;;;;;;;;;5142481;27;20492;-78
2023/12/04 03:55:31;;;;;;;23.17;11.43;;;;;;;;;;5144378;27;20490;-78
2023/12/04 03:57:59;;;;;;;28.67;13.73;;;;;;;;;;5143803;27;20483;-78
2023/12/04 04:00:26;;;;;;;25.20;13.37;;;;;;;;;;5144318;27;20732;-78
2023/12/04 04:02:56;;;;;;;22.07;11.20;;;;;;;;;;5143218;27;20547;-77
2023/12/04 04:05:23;;;;;;;22.80;12.40;;;;;;;;;;5145629;27;20510;-78
2023/12/04 04:07:51;;;;;;;23.30;11.30;;;;;;;;;;5143912;27;20456;-78
2023/12/04 04:10:20;;;;;;;21.10;12.27;;;;;;;;;;5143776;27;20870;-79
2023/12/04 04:12:48;;;;;;;22.10;11.50;;;;;;;;;;5143245;27;20483;-77
2023/12/04 04:15:15;;;;;;;19.73;10.80;;;;;;;;;;5142813;27;20696;-79
2023/12/04 04:17:43;;;;;;;25.00;12.33;;;;;;;;;;5140338;28;20483;-78
2023/12/04 04:20:15;;;;;;;19.20;11.67;;;;;;;;;;5141960;28;20458;-78
2023/12/04 04:22:43;;;;;;;20.23;11.50;;;;;;;;;;5141545;28;20472;-77
2023/12/04 04:25:11;;;;;;;18.17;10.37;;;;;;;;;;5142397;28;20448;-78
2023/12/04 04:27:39;;;;;;;20.00;11.27;;;;;;;;;;5139820;27;20782;-79
2023/12/04 04:30:08;;;;;;;20.40;10.97;;;;;;;;;;5140308;28;20460;-79
2023/12/04 04:32:36;;;;;;;22.17;12.37;;;;;;;;;;5143342;28;20474;-77
2023/12/04 04:35:03;;;;;;;24.63;11.83;;;;;;;;;;5140364;28;20462;-76
2023/12/04 04:37:33;;;;;;;19.37;11.30;;;;;;;;;;5138744;28;20748;-76
2023/12/04 04:40:00;;;;;;;20.57;11.43;;;;;;;;;;5141170;28;20452;-78
2023/12/04 04:42:28;;;;;;;24.80;12.53;;;;;;;;;;5137226;28;20471;-78
2023/12/04 04:44:56;;;;;;;23.53;11.30;;;;;;;;;;5137988;28;20449;-78
2023/12/04 04:47:24;;;;;;;22.90;10.93;;;;;;;;;;5138205;28;20450;-78
2023/12/04 04:49:52;;;;;;;21.80;10.93;;;;;;;;;;5138964;28;20737;-77
2023/12/04 04:52:19;;;;;;;20.80;11.90;;;;;;;;;;5138723;28;20902;-78
2023/12/04 04:54:49;;;;;;;23.40;12.53;;;;;;;;;;5139047;28;20600;-77
2023/12/04 04:57:16;;;;;;;19.33;9.30;;;;;;;;;;5137395;28;21004;-77
2023/12/04 04:59:44;;;;;;;20.80;9.87;;;;;;;;;;5139072;28;20465;-77
2023/12/04 05:02:12;;;;;;;23.87;11.20;;;;;;;;;;5139497;28;20456;-77
2023/12/04 05:04:39;;;;;;;21.70;10.03;;;;;;;;;;5146022;27;20555;-78
2023/12/04 05:07:07;;;;;;;20.67;11.60;;;;;;;;;;5145382;27;20511;-77
2023/12/04 05:09:35;;;;;;;21.47;10.77;;;;;;;;;;5147811;27;20810;-76
2023/12/04 05:12:05;;;;;;;22.13;11.90;;;;;;;;;;5148034;27;20461;-78
2023/12/04 05:14:33;;;;;;;19.60;11.37;;;;;;;;;;5147751;27;20665;-77
2023/12/04 05:17:01;;;;;;;18.97;10.93;;;;;;;;;;5145572;27;20454;-77
2023/12/04 05:19:28;;;;;;;23.57;12.47;;;;;;;;;;5148396;27;20461;-77
2023/12/04 05:21:56;;;;;;;22.27;13.10;;;;;;;;;;5148935;27;20515;-78
2023/12/04 05:24:24;;;;;;;19.97;10.37;;;;;;;;;;5149645;27;20551;-78
2023/12/04 05:26:52;;;;;;;25.00;12.17;;;;;;;;;;5145124;27;20899;-77
2023/12/04 05:29:22;;;;;;;23.57;11.33;;;;;;;;;;5145057;27;20462;-77
2023/12/04 05:31:50;;;;;;;23.03;13.07;;;;;;;;;;5145172;27;20883;-77
2023/12/04 05:34:18;;;;;;;21.80;11.60;;;;;;;;;;5145095;27;20732;-77
2023/12/04 05:36:46;;;;;;;20.10;12.83;;;;;;;;;;5145208;27;20472;-78
2023/12/04 05:39:13;;;;;;;21.60;11.90;;;;;;;;;;5144124;27;20641;-78
2023/12/04 05:41:41;;;;;;;22.40;12.03;;;;;;;;;;5146341;27;20528;-78
2023/12/04 05:44:13;;;;;;;22.77;12.30;;;;;;;;;;5145756;27;20510;-76
2023/12/04 05:46:42;;;;;;;22.07;10.97;;;;;;;;;;5145200;27;20460;-77
2023/12/04 05:49:10;;;;;;;26.93;14.73;;;;;;;;;;5142796;27;20763;-78
2023/12/04 05:51:37;;;;;;;24.73;13.10;;;;;;;;;;5143085;27;20495;-79
2023/12/04 05:54:05;;;;;;;30.27;16.97;;;;;;;;;;5142416;27;20766;-77
2023/12/04 05:56:33;;;;;;;30.67;14.23;;;;;;;;;;5143212;27;20471;-78
2023/12/04 05:59:00;;;;;;;27.43;13.67;;;;;;;;;;5144622;27;20500;-77
2023/12/04 06:01:28;;;;;;;28.17;13.50;;;;;;;;;;5145870;27;20463;-77
2023/12/04 06:03:57;;;;;;;28.27;15.23;;;;;;;;;;5144079;27;20452;-79
2023/12/04 06:06:24;;;;;;;31.07;13.13;;;;;;;;;;5143152;27;20686;-77
2023/12/04 06:08:53;;;;;;;27.10;11.80;;;;;;;;;;5142209;27;20491;-77
2023/12/04 06:11:20;;;;;;;22.70;12.43;;;;;;;;;;5140102;27;20442;-78
2023/12/04 06:13:48;;;;;;;24.77;13.30;;;;;;;;;;5134673;27;20396;-77
2023/12/04 06:16:15;;;;;;;28.17;13.10;;;;;;;;;;5138533;27;20748;-79
2023/12/04 06:18:43;;;;;;;27.00;13.77;;;;;;;;;;5141694;27;20487;-77
2023/12/04 06:21:12;;;;;;;23.40;12.70;;;;;;;;;;5142008;27;20718;-77
2023/12/04 06:23:40;;;;;;;25.90;14.07;;;;;;;;;;5138372;27;20765;-76
2023/12/04 06:26:09;;;;;;;28.77;15.60;;;;;;;;;;5138735;27;20443;-77
2023/12/04 06:28:37;;;;;;;21.83;13.40;;;;;;;;;;5142549;27;20464;-78
2023/12/04 06:31:05;;;;;;;25.27;12.07;;;;;;;;;;5141492;27;20459;-77
2023/12/04 06:33:33;;;;;;;23.00;12.60;;;;;;;;;;5138073;27;20462;-77
2023/12/04 06:36:03;;;;;;;24.90;11.40;;;;;;;;;;5139338;27;20660;-77
2023/12/04 06:38:34;;;;;;;25.43;13.17;;;;;;;;;;5134770;27;20506;-77
2023/12/04 06:41:02;;;;;;;24.20;12.77;;;;;;;;;;5135984;27;20533;-77
2023/12/04 06:43:30;;;;;;;32.80;14.53;;;;;;;;;;5134039;27;20477;-77
2023/12/04 06:45:58;;;;;;;47.15;27.80;;;;;;;;;;5130007;27;20841;-76
2023/12/04 06:48:27;;;;;;;22.67;12.27;;;;;;;;;;5134210;27;20656;-76
2023/12/04 06:50:55;;;;;;;21.17;13.03;;;;;;;;;;5132251;27;20462;-78
2023/12/04 06:53:29;;;;;;;24.33;11.57;;;;;;;;;;5133675;27;20607;-76
2023/12/04 06:55:58;;;;;;;23.10;13.00;;;;;;;;;;5131875;27;20453;-76
2023/12/04 06:58:29;;;;;;;20.53;11.70;;;;;;;;;;5134728;27;20754;-78
2023/12/04 07:00:57;;;;;;;22.13;12.10;;;;;;;;;;5133200;27;20878;-79
2023/12/04 07:03:27;;;;;;;22.70;12.63;;;;;;;;;;5129118;27;20452;-78
2023/12/04 07:05:56;;;;;;;22.47;13.03;;;;;;;;;;5135111;27;20672;-76
2023/12/04 07:08:27;;;;;;;21.17;12.90;;;;;;;;;;5135306;27;20753;-77
2023/12/04 07:10:55;;;;;;;28.50;13.27;;;;;;;;;;5130877;27;21024;-79
2023/12/04 07:13:24;;;;;;;17.57;11.30;;;;;;;;;;5129968;27;20460;-77
2023/12/04 07:16:19;;;;;;;;;;;;;;;;;;;;;
2023/12/04 07:18:49;;;;;;;23.23;11.90;;;;;;;;;;5146510;27;20488;-77
2023/12/04 07:21:17;;;;;;;25.40;14.67;;;;;;;;;;5141289;27;20444;-79
2023/12/04 07:23:44;;;;;;;24.37;13.37;;;;;;;;;;5132326;27;20462;-78
2023/12/04 07:26:12;;;;;;;26.40;12.27;;;;;;;;;;5139338;27;20587;-79
2023/12/04 07:28:43;;;;;;;19.70;12.60;;;;;;;;;;5135188;27;20444;-79
2023/12/04 07:31:11;;;;;;;19.57;11.40;;;;;;;;;;5142644;27;20458;-77
2023/12/04 07:33:39;;;;;;;19.93;12.23;;;;;;;;;;5136538;27;20441;-78
2023/12/04 07:36:07;;;;;;;23.33;11.23;;;;;;;;;;5139201;27;20512;-78
2023/12/04 07:38:35;;;;;;;23.20;12.50;;;;;;;;;;5139665;27;20527;-78
2023/12/04 07:41:03;;;;;;;20.03;11.90;;;;;;;;;;5133388;27;20432;-77
2023/12/04 07:43:32;;;;;;;20.13;11.30;;;;;;;;;;5134195;27;20847;-77
2023/12/04 07:46:01;;;;;;;21.60;11.33;;;;;;;;;;5137834;27;20551;-77
2023/12/04 07:48:29;;;;;;;22.80;11.90;;;;;;;;;;5141728;27;20464;-78
2023/12/04 07:50:57;;;;;;;22.77;11.97;;;;;;;;;;5136215;27;20672;-78
2023/12/04 07:53:26;;;;;;;23.27;13.43;;;;;;;;;;5137638;27;20453;-78
2023/12/04 07:55:54;;;;;;;23.67;13.23;;;;;;;;;;5134169;27;20440;-77
2023/12/04 07:58:21;;;;;;;18.80;12.20;;;;;;;;;;5131039;27;20646;-78
2023/12/04 08:00:50;;;;;;;18.93;10.73;;;;;;;;;;5136049;27;20891;-78
2023/12/04 08:03:19;;;;;;;22.03;12.23;;;;;;;;;;5132396;27;20515;-77
2023/12/04 08:05:47;;;;;;;17.90;11.00;;;;;;;;;;5121329;27;20448;-79
2023/12/04 08:08:18;;;;;;;26.70;15.17;;;;;;;;;;5123327;27;20433;-79
2023/12/04 08:10:46;;;;;;;23.53;12.60;;;;;;;;;;5130714;27;20469;-79
2023/12/04 08:13:14;;;;;;;29.20;12.57;;;;;;;;;;5122622;27;20466;-80
2023/12/04 08:15:42;;;;;;;17.47;11.87;;;;;;;;;;5122170;27;20457;-80
2023/12/04 08:18:09;;;;;;;30.93;12.00;;;;;;;;;;5135891;28;20512;-78
2023/12/04 08:20:38;;;;;;;19.83;12.33;;;;;;;;;;5120098;28;20541;-79
2023/12/04 08:23:06;;;;;;;23.03;12.47;;;;;;;;;;5121434;28;20487;-80
2023/12/04 08:25:36;;;;;;;24.30;13.87;;;;;;;;;;5118542;28;20490;-79
2023/12/04 08:28:04;;;;;;;21.20;11.40;;;;;;;;;;5124184;28;20839;-79
2023/12/04 08:30:35;;;;;;;21.63;13.17;;;;;;;;;;5129188;28;20456;-78
2023/12/04 08:33:03;;;;;;;23.83;12.70;;;;;;;;;;5141744;28;20455;-79
2023/12/04 08:35:40;;;;;;;25.33;11.93;;;;;;;;;;5139198;28;20460;-79
2023/12/04 08:38:08;;;;;;;22.23;12.57;;;;;;;;;;5134808;28;20489;-78
2023/12/04 08:40:38;;;;;;;28.83;13.10;;;;;;;;;;5136914;27;20745;-79
2023/12/04 08:43:05;;;;;;;20.50;11.30;;;;;;;;;;5127882;27;20463;-78
2023/12/04 08:48:29;;;;;;;23.43;12.80;;;;;;;;;;5125086;27;20437;-80
2023/12/04 08:51:00;;;;;;;27.60;14.43;;;;;;;;;;5131295;27;20480;-79
2023/12/04 08:53:29;;;;;;;31.43;13.03;;;;;;;;;;5136958;27;20520;-78
2023/12/04 08:55:58;;;;;;;29.80;13.70;;;;;;;;;;5127852;27;20563;-79
2023/12/04 08:58:28;;;;;;;24.77;13.07;;;;;;;;;;5121270;27;20510;-78
2023/12/04 09:00:58;;;;;;;22.83;12.20;;;;;;;;;;5121038;27;20815;-79
2023/12/04 09:03:31;;;;;;;25.53;13.67;;;;;;;;;;5131292;27;20464;-78
2023/12/04 09:06:01;;;;;;;23.30;11.20;;;;;;;;;;5120365;27;20896;-78
2023/12/04 09:08:30;;;;;;;22.43;12.37;;;;;;;;;;5123903;27;20461;-78
2023/12/04 09:10:59;;;;;;;29.20;13.93;;;;;;;;;;5118854;27;21157;-79
2023/12/04 09:13:38;;;;;;;17.80;10.70;;;;;;;;;;5126360;27;20791;-79
2023/12/04 09:16:17;;;;;;;19.50;11.30;;;;;;;;;;5127885;27;20492;-79
2023/12/04 09:21:44;;;;;;;22.70;10.90;;;;;;;;;;5126311;27;20457;-80
2023/12/04 09:24:13;;;;;;;23.17;13.33;;;;;;;;;;5127238;27;20482;-79
2023/12/04 09:26:43;;;;;;;24.83;14.40;;;;;;;;;;5128639;27;20550;-78
2023/12/04 09:38:45;;;;;;;19.43;11.80;;;;;;;;;;5131563;27;20478;-81
2023/12/04 09:41:15;;;;;;;21.60;11.23;;;;;;;;;;5128226;27;20469;-79
2023/12/04 09:43:48;;;;;;;21.27;12.03;;;;;;;;;;5125503;27;20457;-79
2023/12/04 09:46:16;;;;;;;23.30;12.40;;;;;;;;;;5133824;27;20467;-80
2023/12/04 09:48:45;;;;;;;23.40;14.17;;;;;;;;;;5132992;27;20457;-80
2023/12/04 09:51:12;;;;;;;26.10;12.83;;;;;;;;;;5127113;27;20449;-80
2023/12/04 09:53:42;;;;;;;24.90;12.27;;;;;;;;;;5126527;27;20511;-80
2023/12/04 09:56:22;;;;;;;21.67;13.43;;;;;;;;;;5132073;27;20614;-79
2023/12/04 09:58:59;;;;;;;22.73;11.60;;;;;;;;;;5133659;27;20540;-78
2023/12/04 10:04:38;;;;;;;24.00;12.97;;;;;;;;;;5138616;27;20459;-80
2023/12/04 10:07:08;;;;;;;25.87;13.10;;;;;;;;;;5138467;27;20519;-79
2023/12/04 10:09:42;;;;;;;23.40;11.97;;;;;;;;;;5135121;27;20513;-79
2023/12/04 10:12:12;;;;;;;25.27;14.47;;;;;;;;;;5138150;27;20451;-79
2023/12/04 10:14:46;;;;;;;22.03;12.90;;;;;;;;;;5139948;27;20526;-75
2023/12/04 10:17:22;;;;;;;21.20;12.40;;;;;;;;;;5127975;27;20496;-79
2023/12/04 10:20:12;;;;;;;26.33;13.23;;;;;;;;;;5127158;27;20505;-80
2023/12/04 10:22:45;;;;;;;23.13;11.93;;;;;;;;;;5132123;27;20475;-79
2023/12/04 10:25:16;;;;;;;21.07;11.53;;;;;;;;;;5128061;27;20458;-80
2023/12/04 10:27:54;;;;;;;23.23;12.77;;;;;;;;;;5134745;27;20478;-79
2023/12/04 10:30:27;;;;;;;19.17;10.10;;;;;;;;;;5133376;27;20478;-80
2023/12/04 10:33:01;;;;;;;22.57;12.50;;;;;;;;;;5137539;27;20460;-80
2023/12/04 10:35:32;;;;;;;25.10;13.13;;;;;;;;;;5132661;27;20634;-80
2023/12/04 10:38:02;;;;;;;24.30;14.00;;;;;;;;;;5132310;27;20923;-80
2023/12/04 10:40:31;;;;;;;26.90;14.20;;;;;;;;;;5132904;27;20494;-80
2023/12/04 10:43:21;;;;;;;24.47;12.97;;;;;;;;;;5126499;27;20808;-79
2023/12/04 10:45:49;;;;;;;23.90;12.70;;;;;;;;;;5125412;28;20442;-80
2023/12/04 10:48:30;;;;;;;22.23;12.60;;;;;;;;;;5125824;28;20453;-80
2023/12/04 15:44:21;;;;;;;11.40;7.50;;;;;;;;;;1463124;26;20481;-82
2023/12/04 15:46:48;;;;;;;13.50;6.83;;;;;;;;;;5095781;28;20452;-80
2023/12/04 15:49:16;;;;;;;15.97;8.63;;;;;;;;;;5101019;28;20453;-79
2023/12/04 15:51:43;;;;;;;13.40;8.17;;;;;;;;;;5098735;28;20526;-79
2023/12/04 15:54:16;;;;;;;12.07;7.50;;;;;;;;;;5101613;28;20449;-79
2023/12/04 16:02:06;;;;;;;11.20;8.10;;;;;;;;;;5051024;28;20583;-79
2023/12/04 16:04:35;;;;;;;14.10;8.87;;;;;;;;;;5027999;28;20487;-80
2023/12/04 16:07:07;;;;;;;13.43;7.60;;;;;;;;;;5038393;28;20473;-81
2023/12/04 16:09:39;;;;;;;12.97;7.00;;;;;;;;;;5017199;28;20944;-80
2023/12/04 16:12:09;;;;;;;15.27;8.63;;;;;;;;;;5018746;28;20986;-79
2023/12/04 16:14:37;;;;;;;11.63;7.67;;;;;;;;;;5018934;28;20460;-79
2023/12/04 16:17:06;;;;;;;11.87;6.77;;;;;;;;;;5017234;28;20532;-80
2023/12/04 16:19:37;;;;;;;10.87;6.33;;;;;;;;;;5011349;28;20516;-78
2023/12/04 16:22:04;;;;;;;13.97;7.60;;;;;;;;;;5018000;28;20642;-80
2023/12/04 16:24:35;;;;;;;14.97;8.03;;;;;;;;;;5015632;28;20493;-80
2023/12/04 16:27:05;;;;;;;13.33;7.60;;;;;;;;;;5015102;28;20481;-77
2023/12/04 16:29:34;;;;;;;12.10;7.30;;;;;;;;;;5013287;28;20457;-78
2023/12/04 16:32:02;;;;;;;12.43;6.67;;;;;;;;;;5014373;28;20456;-78
2023/12/04 16:34:32;;;;;;;13.60;7.93;;;;;;;;;;5014570;28;20547;-78
2023/12/04 16:37:00;;;;;;;11.70;6.43;;;;;;;;;;5015474;28;20456;-77
2023/12/04 16:39:28;;;;;;;15.30;8.67;;;;;;;;;;5016949;28;20485;-78
2023/12/04 16:41:57;;;;;;;14.00;7.53;;;;;;;;;;5016634;28;20514;-79
2023/12/04 16:44:25;;;;;;;12.93;7.03;;;;;;;;;;5013359;28;20450;-79
2023/12/04 16:46:56;;;;;;;12.37;6.23;;;;;;;;;;5015983;28;20633;-79
2023/12/04 16:49:25;;;;;;;13.47;6.83;;;;;;;;;;5016313;28;20450;-79
2023/12/04 16:51:55;;;;;;;10.63;7.00;;;;;;;;;;5023090;28;20502;-78
2023/12/04 16:54:23;;;;;;;10.07;6.13;;;;;;;;;;5021899;28;20453;-80
2023/12/04 16:56:51;;;;;;;11.53;6.90;;;;;;;;;;5028511;28;20471;-79
2023/12/04 16:59:21;;;;;;;12.87;6.23;;;;;;;;;;5034749;28;20480;-79
2023/12/04 17:01:51;;;;;;;9.97;6.77;;;;;;;;;;5022419;28;20508;-78
2023/12/04 17:04:21;;;;;;;10.37;6.13;;;;;;;;;;5022146;28;20545;-78
2023/12/04 17:06:50;;;;;;;12.97;6.90;;;;;;;;;;5023037;28;20548;-79
2023/12/04 17:09:20;;;;;;;13.67;7.53;;;;;;;;;;5025498;28;20437;-78
2023/12/04 17:11:48;;;;;;;13.40;7.33;;;;;;;;;;5023912;28;20451;-78
2023/12/04 17:14:17;;;;;;;11.93;7.07;;;;;;;;;;5029658;28;20461;-79
2023/12/04 17:43:06;;;;;;;12.73;7.17;;;;;;;;;;4994868;28;20949;-79
2023/12/04 17:45:38;;;;;;;9.70;6.00;;;;;;;;;;5000078;28;20528;-79
2023/12/04 17:48:07;;;;;;;10.10;5.67;;;;;;;;;;5001667;28;20455;-78
2023/12/04 17:50:35;;;;;;;14.03;8.17;;;;;;;;;;5002377;28;20435;-79
2023/12/04 17:53:04;;;;;;;9.10;5.20;;;;;;;;;;5003636;28;20463;-79
2023/12/04 17:55:33;;;;;;;7.03;5.20;;;;;;;;;;5003517;28;20521;-79
2023/12/04 17:58:07;;;;;;;10.93;6.60;;;;;;;;;;5003526;28;20451;-78
2023/12/04 18:00:37;;;;;;;10.73;5.77;;;;;;;;;;5003910;28;20486;-79
2023/12/04 18:03:06;;;;;;;9.90;5.37;;;;;;;;;;5003436;28;20509;-79
2023/12/04 18:05:57;;;;;;;12.70;7.43;;;;;;;;;;5003192;28;20463;-79
2023/12/04 18:08:35;;;;;;;10.00;5.83;;;;;;;;;;4986862;28;20466;-78
2023/12/04 18:11:03;;;;;;;9.50;5.33;;;;;;;;;;5003000;28;20454;-78
2023/12/04 18:13:34;;;;;;;8.87;6.00;;;;;;;;;;5001421;28;20447;-78
2023/12/04 18:16:01;;;;;;;9.23;5.10;;;;;;;;;;5002976;28;20458;-79
2023/12/04 18:18:34;;;;;;;8.30;5.17;;;;;;;;;;5006015;28;20465;-79
2023/12/04 18:21:03;;;;;;;7.27;5.43;;;;;;;;;;5023657;28;20583;-80
2023/12/04 18:23:35;;;;;;;8.63;5.00;;;;;;;;;;5001685;28;20493;-79
2023/12/04 18:26:05;;;;;;;9.73;5.47;;;;;;;;;;4997736;28;20521;-78
2023/12/04 18:28:39;;;;;;;11.80;6.50;;;;;;;;;;4999174;28;20515;-78
2023/12/04 18:31:07;;;;;;;13.10;5.27;;;;;;;;;;4991525;28;20460;-79
2023/12/04 18:33:35;;;;;;;9.30;5.80;;;;;;;;;;4994059;28;20501;-80
2023/12/04 18:36:04;;;;;;;9.03;5.40;;;;;;;;;;5008105;28;20465;-79
2023/12/04 18:38:36;;;;;;;9.70;5.53;;;;;;;;;;5004511;28;21029;-79
2023/12/04 18:41:05;;;;;;;12.07;6.40;;;;;;;;;;5004020;28;20505;-78
2023/12/04 18:43:34;;;;;;;9.07;5.00;;;;;;;;;;5001868;28;20463;-81
2023/12/04 18:46:05;;;;;;;8.70;5.27;;;;;;;;;;4980670;28;20467;-78
2023/12/04 18:48:33;;;;;;;11.37;5.27;;;;;;;;;;4983896;28;20455;-78
2023/12/04 18:51:01;;;;;;;11.40;5.67;;;;;;;;;;4985917;28;20779;-79
2023/12/04 18:53:29;;;;;;;15.10;5.53;;;;;;;;;;4986512;28;20482;-80
2023/12/04 18:55:58;;;;;;;9.90;6.00;;;;;;;;;;5003550;28;20596;-80
2023/12/04 18:58:36;;;;;;;10.10;6.20;;;;;;;;;;4996415;28;20908;-80
2023/12/04 19:01:05;;;;;;;8.67;5.60;;;;;;;;;;4990578;28;20570;-77
2023/12/04 19:03:35;;;;;;;9.97;6.27;;;;;;;;;;4981595;28;20461;-78
2023/12/04 19:06:05;;;;;;;9.37;5.77;;;;;;;;;;4982334;28;20467;-78
2023/12/04 19:08:36;;;;;;;11.43;6.60;;;;;;;;;;4982623;28;20868;-79
2023/12/04 19:11:05;;;;;;;12.57;7.20;;;;;;;;;;4977494;28;20475;-78
2023/12/04 19:13:33;;;;;;;10.20;6.67;;;;;;;;;;4964629;28;20480;-78
2023/12/04 19:16:01;;;;;;;9.67;6.03;;;;;;;;;;4970174;28;20468;-78
2023/12/04 19:18:29;;;;;;;11.67;6.57;;;;;;;;;;4976143;28;20482;-77
2023/12/04 19:21:02;;;;;;;12.00;6.83;;;;;;;;;;4961722;28;20540;-79
2023/12/04 19:23:34;;;;;;;10.17;6.20;;;;;;;;;;4969654;28;20471;-78
2023/12/04 19:26:02;;;;;;;10.77;6.13;;;;;;;;;;4977145;28;20464;-77
2023/12/04 19:28:31;;;;;;;12.30;7.00;;;;;;;;;;4979198;28;20467;-77
2023/12/04 19:30:59;;;;;;;9.13;6.03;;;;;;;;;;4965381;28;20460;-78
2023/12/04 19:33:27;;;;;;;9.60;6.00;;;;;;;;;;4975328;28;20523;-77
2023/12/04 19:36:01;;;;;;;13.17;7.33;;;;;;;;;;4960976;28;20462;-80
2023/12/04 19:38:33;;;;;;;13.77;8.10;;;;;;;;;;4987360;28;20459;-80
2023/12/04 19:41:03;;;;;;;16.83;9.37;;;;;;;;;;4972192;28;20488;-79
2023/12/04 19:43:31;;;;;;;13.67;8.70;;;;;;;;;;4966939;28;20468;-80
2023/12/04 19:45:58;;;;;;;11.70;6.30;;;;;;;;;;4964656;28;20449;-77
2023/12/04 19:48:26;;;;;;;10.63;6.40;;;;;;;;;;4964426;28;20464;-80
2023/12/04 19:50:54;;;;;;;11.67;7.30;;;;;;;;;;4965077;28;20452;-79
2023/12/04 19:53:22;;;;;;;10.53;6.77;;;;;;;;;;4965238;28;20476;-80
2023/12/04 19:55:52;;;;;;;16.30;8.40;;;;;;;;;;4966748;28;20459;-80
2023/12/04 19:58:21;;;;;;;13.20;7.67;;;;;;;;;;4966387;28;20468;-78
2023/12/04 20:00:51;;;;;;;9.93;6.73;;;;;;;;;;4971507;28;20507;-81
2023/12/04 20:03:20;;;;;;;17.60;7.80;;;;;;;;;;4965705;28;20474;-80
2023/12/04 20:05:50;;;;;;;12.03;7.97;;;;;;;;;;4964262;28;20463;-79
2023/12/04 20:08:19;;;;;;;11.30;7.40;;;;;;;;;;4966938;28;20456;-78
2023/12/04 20:10:48;;;;;;;11.83;7.50;;;;;;;;;;4965278;28;20524;-77
2023/12/04 20:13:17;;;;;;;13.57;7.97;;;;;;;;;;4967535;28;20516;-79
2023/12/04 20:15:45;;;;;;;13.77;7.40;;;;;;;;;;4965654;28;20465;-78
2023/12/04 20:18:15;;;;;;;9.83;6.37;;;;;;;;;;4964757;28;20452;-79
2023/12/04 20:20:44;;;;;;;15.97;8.90;;;;;;;;;;4965191;28;20543;-80
2023/12/04 20:23:13;;;;;;;12.00;7.33;;;;;;;;;;4955330;28;20459;-80